sensor_id;sensor_type;location;lat;lon;timestamp;P1;durP1;ratioP1;P2;durP2;ratioP2
4397;SDS011;2213;49.720;7.296;2023-02-15T00:01:55;9.03;;;5.70;;
4397;SDS011;2213;49.720;7.296;2023-02-15T00:04:25;7.70;;;4.73;;
4397;SDS011;2213;49.720;7.296;2023-02-15T00:07:13;8.60;;;4.90;;
4397;SDS011;2213;49.720;7.296;2023-02-15T00:09:44;9.70;;;5.70;;
4397;SDS011;2213;49.720;7.296;2023-02-15T00:12:14;8.13;;;4.90;;
4397;SDS011;2213;49.720;7.296;2023-02-15T00:14:46;8.57;;;5.43;;
4397;SDS011;2213;49.720;7.296;2023-02-15T00:17:16;7.57;;;4.63;;
4397;SDS011;2213;49.720;7.296;2023-02-15T00:19:46;10.67;;;4.90;;
4397;SDS011;2213;49.720;7.296;2023-02-15T00:22:16;8.70;;;5.40;;
4397;SDS011;2213;49.720;7.296;2023-02-15T00:24:47;12.37;;;4.80;;
4397;SDS011;2213;49.720;7.296;2023-02-15T00:27:17;7.10;;;4.83;;
4397;SDS011;2213;49.720;7.296;2023-02-15T00:29:49;24.93;;;4.77;;
4397;SDS011;2213;49.720;7.296;2023-02-15T00:32:20;10.27;;;5.43;;
4397;SDS011;2213;49.720;7.296;2023-02-15T00:34:50;18.23;;;5.63;;
4397;SDS011;2213;49.720;7.296;2023-02-15T00:37:19;13.77;;;5.27;;
4397;SDS011;2213;49.720;7.296;2023-02-15T00:39:49;11.87;;;5.03;;
4397;SDS011;2213;49.720;7.296;2023-02-15T00:42:20;16.53;;;4.93;;
4397;SDS011;2213;49.720;7.296;2023-02-15T00:44:51;12.07;;;5.53;;
4397;SDS011;2213;49.720;7.296;2023-02-15T00:47:20;14.40;;;5.83;;
4397;SDS011;2213;49.720;7.296;2023-02-15T00:49:52;9.23;;;4.70;;
4397;SDS011;2213;49.720;7.296;2023-02-15T00:52:22;10.77;;;5.23;;
4397;SDS011;2213;49.720;7.296;2023-02-15T00:54:51;8.10;;;4.80;;
4397;SDS011;2213;49.720;7.296;2023-02-15T00:57:20;7.40;;;4.67;;
4397;SDS011;2213;49.720;7.296;2023-02-15T00:59:50;8.70;;;3.93;;
4397;SDS011;2213;49.720;7.296;2023-02-15T01:02:20;8.00;;;4.10;;
4397;SDS011;2213;49.720;7.296;2023-02-15T01:04:49;10.97;;;4.07;;
4397;SDS011;2213;49.720;7.296;2023-02-15T01:07:19;9.37;;;4.20;;
4397;SDS011;2213;49.720;7.296;2023-02-15T01:09:48;13.60;;;4.97;;
4397;SDS011;2213;49.720;7.296;2023-02-15T01:12:17;13.10;;;4.10;;
4397;SDS011;2213;49.720;7.296;2023-02-15T01:14:47;13.67;;;4.83;;
4397;SDS011;2213;49.720;7.296;2023-02-15T01:17:19;8.53;;;4.17;;
4397;SDS011;2213;49.720;7.296;2023-02-15T01:19:49;7.20;;;4.33;;
4397;SDS011;2213;49.720;7.296;2023-02-15T01:22:19;7.63;;;4.80;;
4397;SDS011;2213;49.720;7.296;2023-02-15T01:24:49;16.10;;;3.53;;
4397;SDS011;2213;49.720;7.296;2023-02-15T01:27:19;10.03;;;5.60;;
4397;SDS011;2213;49.720;7.296;2023-02-15T01:29:48;17.90;;;4.77;;
4397;SDS011;2213;49.720;7.296;2023-02-15T01:32:20;12.03;;;5.03;;
4397;SDS011;2213;49.720;7.296;2023-02-15T01:34:50;15.03;;;4.57;;
4397;SDS011;2213;49.720;7.296;2023-02-15T01:37:19;14.07;;;4.60;;
4397;SDS011;2213;49.720;7.296;2023-02-15T01:39:50;12.50;;;4.97;;
4397;SDS011;2213;49.720;7.296;2023-02-15T01:42:20;26.33;;;5.43;;
4397;SDS011;2213;49.720;7.296;2023-02-15T01:44:54;13.43;;;5.10;;
4397;SDS011;2213;49.720;7.296;2023-02-15T01:47:30;7.57;;;4.40;;
4397;SDS011;2213;49.720;7.296;2023-02-15T01:50:08;10.17;;;4.97;;
4397;SDS011;2213;49.720;7.296;2023-02-15T01:52:43;6.77;;;4.17;;
4397;SDS011;2213;49.720;7.296;2023-02-15T01:55:21;8.17;;;3.77;;
4397;SDS011;2213;49.720;7.296;2023-02-15T01:57:52;10.40;;;4.60;;
4397;SDS011;2213;49.720;7.296;2023-02-15T02:00:22;10.57;;;4.10;;
4397;SDS011;2213;49.720;7.296;2023-02-15T02:02:53;33.60;;;4.90;;
4397;SDS011;2213;49.720;7.296;2023-02-15T02:05:24;12.63;;;4.90;;
4397;SDS011;2213;49.720;7.296;2023-02-15T02:07:54;12.00;;;5.33;;
4397;SDS011;2213;49.720;7.296;2023-02-15T02:10:29;13.70;;;5.03;;
4397;SDS011;2213;49.720;7.296;2023-02-15T02:12:59;8.77;;;5.17;;
4397;SDS011;2213;49.720;7.296;2023-02-15T02:15:43;10.63;;;5.50;;
4397;SDS011;2213;49.720;7.296;2023-02-15T02:18:28;11.53;;;5.03;;
4397;SDS011;2213;49.720;7.296;2023-02-15T02:28:14;18.83;;;4.77;;
4397;SDS011;2213;49.720;7.296;2023-02-15T02:31:14;30.43;;;5.80;;
4397;SDS011;2213;49.720;7.296;2023-02-15T02:34:25;14.13;;;6.00;;
4397;SDS011;2213;49.720;7.296;2023-02-15T02:37:03;15.73;;;5.30;;
4397;SDS011;2213;49.720;7.296;2023-02-15T02:39:46;10.67;;;5.23;;
4397;SDS011;2213;49.720;7.296;2023-02-15T02:42:25;24.97;;;5.07;;
4397;SDS011;2213;49.720;7.296;2023-02-15T02:45:05;13.20;;;4.93;;
4397;SDS011;2213;49.720;7.296;2023-02-15T02:47:43;24.70;;;5.40;;
4397;SDS011;2213;49.720;7.296;2023-02-15T02:50:24;8.10;;;5.60;;
4397;SDS011;2213;49.720;7.296;2023-02-15T02:52:57;13.33;;;4.90;;
4397;SDS011;2213;49.720;7.296;2023-02-15T02:55:30;17.50;;;5.30;;
4397;SDS011;2213;49.720;7.296;2023-02-15T02:58:05;7.50;;;4.33;;
4397;SDS011;2213;49.720;7.296;2023-02-15T03:00:44;15.27;;;5.33;;
4397;SDS011;2213;49.720;7.296;2023-02-15T03:03:22;11.30;;;4.13;;
4397;SDS011;2213;49.720;7.296;2023-02-15T03:05:59;10.70;;;5.37;;
4397;SDS011;2213;49.720;7.296;2023-02-15T03:08:34;8.40;;;5.07;;
4397;SDS011;2213;49.720;7.296;2023-02-15T03:11:10;12.90;;;5.10;;
4397;SDS011;2213;49.720;7.296;2023-02-15T03:13:40;9.63;;;5.07;;
4397;SDS011;2213;49.720;7.296;2023-02-15T03:16:12;8.70;;;4.73;;
4397;SDS011;2213;49.720;7.296;2023-02-15T03:18:55;14.20;;;6.50;;
4397;SDS011;2213;49.720;7.296;2023-02-15T03:21:33;13.60;;;5.00;;
4397;SDS011;2213;49.720;7.296;2023-02-15T03:24:07;8.97;;;5.60;;
4397;SDS011;2213;49.720;7.296;2023-02-15T03:26:45;11.40;;;5.60;;
4397;SDS011;2213;49.720;7.296;2023-02-15T03:29:20;14.27;;;5.97;;
4397;SDS011;2213;49.720;7.296;2023-02-15T03:31:56;12.00;;;4.97;;
4397;SDS011;2213;49.720;7.296;2023-02-15T03:34:34;11.13;;;5.70;;
4397;SDS011;2213;49.720;7.296;2023-02-15T03:37:05;15.60;;;5.33;;
4397;SDS011;2213;49.720;7.296;2023-02-15T03:39:42;11.60;;;4.77;;
4397;SDS011;2213;49.720;7.296;2023-02-15T03:42:19;9.83;;;5.93;;
4397;SDS011;2213;49.720;7.296;2023-02-15T03:44:56;14.33;;;5.73;;
4397;SDS011;2213;49.720;7.296;2023-02-15T03:47:32;9.13;;;5.70;;
4397;SDS011;2213;49.720;7.296;2023-02-15T03:50:08;8.37;;;5.17;;
4397;SDS011;2213;49.720;7.296;2023-02-15T03:52:59;15.70;;;5.60;;
4397;SDS011;2213;49.720;7.296;2023-02-15T03:55:33;17.33;;;6.17;;
4397;SDS011;2213;49.720;7.296;2023-02-15T03:58:03;8.53;;;4.60;;
4397;SDS011;2213;49.720;7.296;2023-02-15T04:00:51;14.77;;;5.33;;
4397;SDS011;2213;49.720;7.296;2023-02-15T04:03:51;13.60;;;4.90;;
4397;SDS011;2213;49.720;7.296;2023-02-15T04:06:27;15.57;;;7.30;;
4397;SDS011;2213;49.720;7.296;2023-02-15T04:08:58;10.17;;;5.40;;
4397;SDS011;2213;49.720;7.296;2023-02-15T04:11:45;17.03;;;5.27;;
4397;SDS011;2213;49.720;7.296;2023-02-15T04:14:15;18.60;;;4.80;;
4397;SDS011;2213;49.720;7.296;2023-02-15T04:17:04;18.63;;;6.13;;
4397;SDS011;2213;49.720;7.296;2023-02-15T04:19:34;35.30;;;5.67;;
4397;SDS011;2213;49.720;7.296;2023-02-15T04:22:21;12.13;;;5.73;;
4397;SDS011;2213;49.720;7.296;2023-02-15T04:25:13;24.67;;;4.90;;
4397;SDS011;2213;49.720;7.296;2023-02-15T04:27:45;20.37;;;5.20;;
4397;SDS011;2213;49.720;7.296;2023-02-15T04:30:16;13.63;;;5.30;;
4397;SDS011;2213;49.720;7.296;2023-02-15T04:32:50;14.63;;;5.00;;
4397;SDS011;2213;49.720;7.296;2023-02-15T04:35:19;10.57;;;5.80;;
4397;SDS011;2213;49.720;7.296;2023-02-15T04:37:49;11.43;;;5.50;;
4397;SDS011;2213;49.720;7.296;2023-02-15T04:40:20;15.57;;;6.53;;
4397;SDS011;2213;49.720;7.296;2023-02-15T04:42:51;18.90;;;6.07;;
4397;SDS011;2213;49.720;7.296;2023-02-15T04:45:22;7.30;;;4.80;;
4397;SDS011;2213;49.720;7.296;2023-02-15T04:47:52;14.20;;;4.93;;
4397;SDS011;2213;49.720;7.296;2023-02-15T04:50:21;14.23;;;5.13;;
4397;SDS011;2213;49.720;7.296;2023-02-15T04:52:51;22.23;;;5.77;;
4397;SDS011;2213;49.720;7.296;2023-02-15T04:55:22;13.37;;;4.70;;
4397;SDS011;2213;49.720;7.296;2023-02-15T04:57:53;8.57;;;4.77;;
4397;SDS011;2213;49.720;7.296;2023-02-15T05:00:24;27.57;;;5.63;;
4397;SDS011;2213;49.720;7.296;2023-02-15T05:02:54;8.90;;;4.97;;
4397;SDS011;2213;49.720;7.296;2023-02-15T05:05:24;11.53;;;5.23;;
4397;SDS011;2213;49.720;7.296;2023-02-15T05:07:54;11.23;;;4.50;;
4397;SDS011;2213;49.720;7.296;2023-02-15T05:10:25;8.33;;;4.53;;
4397;SDS011;2213;49.720;7.296;2023-02-15T05:12:54;18.90;;;5.50;;
4397;SDS011;2213;49.720;7.296;2023-02-15T05:15:23;7.80;;;4.30;;
4397;SDS011;2213;49.720;7.296;2023-02-15T05:17:53;12.47;;;5.40;;
4397;SDS011;2213;49.720;7.296;2023-02-15T05:20:23;17.40;;;5.90;;
4397;SDS011;2213;49.720;7.296;2023-02-15T05:22:54;21.20;;;4.83;;
4397;SDS011;2213;49.720;7.296;2023-02-15T05:25:25;11.37;;;5.17;;
4397;SDS011;2213;49.720;7.296;2023-02-15T05:28:12;9.43;;;5.27;;
4397;SDS011;2213;49.720;7.296;2023-02-15T05:30:50;27.53;;;5.83;;
4397;SDS011;2213;49.720;7.296;2023-02-15T05:33:31;12.43;;;5.00;;
4397;SDS011;2213;49.720;7.296;2023-02-15T05:36:02;17.63;;;6.37;;
4397;SDS011;2213;49.720;7.296;2023-02-15T05:38:34;16.63;;;5.90;;
4397;SDS011;2213;49.720;7.296;2023-02-15T05:41:06;17.63;;;5.83;;
4397;SDS011;2213;49.720;7.296;2023-02-15T05:43:38;11.90;;;5.53;;
4397;SDS011;2213;49.720;7.296;2023-02-15T05:46:07;19.95;;;7.72;;
4397;SDS011;2213;49.720;7.296;2023-02-15T05:48:37;15.13;;;5.77;;
4397;SDS011;2213;49.720;7.296;2023-02-15T05:51:06;13.83;;;5.53;;
4397;SDS011;2213;49.720;7.296;2023-02-15T05:53:40;11.47;;;6.50;;
4397;SDS011;2213;49.720;7.296;2023-02-15T05:56:10;10.03;;;5.67;;
4397;SDS011;2213;49.720;7.296;2023-02-15T05:58:41;10.93;;;6.27;;
4397;SDS011;2213;49.720;7.296;2023-02-15T06:01:10;17.93;;;5.70;;
4397;SDS011;2213;49.720;7.296;2023-02-15T06:03:42;13.67;;;6.03;;
4397;SDS011;2213;49.720;7.296;2023-02-15T06:06:11;18.23;;;6.07;;
4397;SDS011;2213;49.720;7.296;2023-02-15T06:08:41;12.20;;;6.10;;
4397;SDS011;2213;49.720;7.296;2023-02-15T06:11:11;14.07;;;5.13;;
4397;SDS011;2213;49.720;7.296;2023-02-15T06:13:42;11.60;;;5.37;;
4397;SDS011;2213;49.720;7.296;2023-02-15T06:16:11;15.50;;;5.37;;
4397;SDS011;2213;49.720;7.296;2023-02-15T06:18:43;14.90;;;5.60;;
4397;SDS011;2213;49.720;7.296;2023-02-15T06:21:12;13.97;;;6.30;;
4397;SDS011;2213;49.720;7.296;2023-02-15T06:23:41;17.23;;;5.53;;
4397;SDS011;2213;49.720;7.296;2023-02-15T06:26:12;26.87;;;6.57;;
4397;SDS011;2213;49.720;7.296;2023-02-15T06:28:42;23.73;;;6.07;;
4397;SDS011;2213;49.720;7.296;2023-02-15T06:31:12;20.07;;;5.97;;
4397;SDS011;2213;49.720;7.296;2023-02-15T06:33:42;27.57;;;6.00;;
4397;SDS011;2213;49.720;7.296;2023-02-15T06:36:12;19.83;;;6.50;;
4397;SDS011;2213;49.720;7.296;2023-02-15T06:38:42;15.63;;;7.50;;
4397;SDS011;2213;49.720;7.296;2023-02-15T06:41:13;18.13;;;6.03;;
4397;SDS011;2213;49.720;7.296;2023-02-15T06:43:43;19.23;;;6.57;;
4397;SDS011;2213;49.720;7.296;2023-02-15T06:46:12;13.87;;;6.37;;
4397;SDS011;2213;49.720;7.296;2023-02-15T06:48:42;12.83;;;6.07;;
4397;SDS011;2213;49.720;7.296;2023-02-15T06:51:11;31.77;;;7.10;;
4397;SDS011;2213;49.720;7.296;2023-02-15T06:53:40;13.60;;;5.47;;
4397;SDS011;2213;49.720;7.296;2023-02-15T06:56:11;13.53;;;6.00;;
4397;SDS011;2213;49.720;7.296;2023-02-15T06:58:43;15.73;;;6.10;;
4397;SDS011;2213;49.720;7.296;2023-02-15T07:01:13;22.93;;;6.03;;
4397;SDS011;2213;49.720;7.296;2023-02-15T07:03:42;18.27;;;6.20;;
4397;SDS011;2213;49.720;7.296;2023-02-15T07:06:12;17.40;;;5.50;;
4397;SDS011;2213;49.720;7.296;2023-02-15T07:08:41;25.00;;;6.20;;
4397;SDS011;2213;49.720;7.296;2023-02-15T07:11:10;19.77;;;6.83;;
4397;SDS011;2213;49.720;7.296;2023-02-15T07:13:59;19.60;;;6.60;;
4397;SDS011;2213;49.720;7.296;2023-02-15T07:16:28;18.20;;;6.93;;
4397;SDS011;2213;49.720;7.296;2023-02-15T07:18:58;25.43;;;7.50;;
4397;SDS011;2213;49.720;7.296;2023-02-15T07:21:27;17.00;;;5.77;;
4397;SDS011;2213;49.720;7.296;2023-02-15T07:23:57;17.00;;;6.90;;
4397;SDS011;2213;49.720;7.296;2023-02-15T07:26:27;20.37;;;7.47;;
4397;SDS011;2213;49.720;7.296;2023-02-15T07:29:00;15.43;;;5.40;;
4397;SDS011;2213;49.720;7.296;2023-02-15T07:31:29;23.10;;;7.67;;
4397;SDS011;2213;49.720;7.296;2023-02-15T07:33:58;16.50;;;7.17;;
4397;SDS011;2213;49.720;7.296;2023-02-15T07:36:29;11.33;;;6.83;;
4397;SDS011;2213;49.720;7.296;2023-02-15T07:39:00;13.83;;;6.80;;
4397;SDS011;2213;49.720;7.296;2023-02-15T07:41:31;16.20;;;7.03;;
4397;SDS011;2213;49.720;7.296;2023-02-15T07:44:01;23.33;;;7.57;;
4397;SDS011;2213;49.720;7.296;2023-02-15T07:46:32;29.77;;;6.40;;
4397;SDS011;2213;49.720;7.296;2023-02-15T07:49:02;23.20;;;7.43;;
4397;SDS011;2213;49.720;7.296;2023-02-15T07:51:33;10.93;;;7.00;;
4397;SDS011;2213;49.720;7.296;2023-02-15T07:54:02;19.63;;;7.30;;
4397;SDS011;2213;49.720;7.296;2023-02-15T07:56:31;20.93;;;8.60;;
4397;SDS011;2213;49.720;7.296;2023-02-15T07:59:04;11.00;;;6.30;;
4397;SDS011;2213;49.720;7.296;2023-02-15T08:01:36;10.30;;;5.50;;
4397;SDS011;2213;49.720;7.296;2023-02-15T08:04:07;13.33;;;5.70;;
4397;SDS011;2213;49.720;7.296;2023-02-15T08:06:37;17.10;;;7.50;;
4397;SDS011;2213;49.720;7.296;2023-02-15T08:09:08;15.67;;;7.23;;
4397;SDS011;2213;49.720;7.296;2023-02-15T08:11:37;11.60;;;6.30;;
4397;SDS011;2213;49.720;7.296;2023-02-15T08:14:10;29.33;;;7.87;;
4397;SDS011;2213;49.720;7.296;2023-02-15T08:16:43;12.00;;;6.63;;
4397;SDS011;2213;49.720;7.296;2023-02-15T08:19:14;25.33;;;6.60;;
4397;SDS011;2213;49.720;7.296;2023-02-15T08:21:47;20.80;;;6.97;;
4397;SDS011;2213;49.720;7.296;2023-02-15T08:24:19;24.03;;;7.63;;
4397;SDS011;2213;49.720;7.296;2023-02-15T08:26:51;14.90;;;8.10;;
4397;SDS011;2213;49.720;7.296;2023-02-15T08:29:22;13.27;;;7.27;;
4397;SDS011;2213;49.720;7.296;2023-02-15T08:31:54;13.77;;;7.47;;
4397;SDS011;2213;49.720;7.296;2023-02-15T08:34:25;16.33;;;7.37;;
4397;SDS011;2213;49.720;7.296;2023-02-15T08:36:57;16.53;;;7.90;;
4397;SDS011;2213;49.720;7.296;2023-02-15T08:39:27;20.10;;;8.83;;
4397;SDS011;2213;49.720;7.296;2023-02-15T08:41:58;19.83;;;7.07;;
4397;SDS011;2213;49.720;7.296;2023-02-15T08:44:29;30.90;;;8.57;;
4397;SDS011;2213;49.720;7.296;2023-02-15T08:46:59;15.33;;;8.40;;
4397;SDS011;2213;49.720;7.296;2023-02-15T08:49:30;13.33;;;7.17;;
4397;SDS011;2213;49.720;7.296;2023-02-15T08:52:00;17.47;;;7.13;;
4397;SDS011;2213;49.720;7.296;2023-02-15T08:54:30;11.93;;;7.30;;
4397;SDS011;2213;49.720;7.296;2023-02-15T08:56:58;13.63;;;7.63;;
4397;SDS011;2213;49.720;7.296;2023-02-15T08:59:30;12.97;;;7.13;;
4397;SDS011;2213;49.720;7.296;2023-02-15T09:01:58;14.17;;;7.30;;
4397;SDS011;2213;49.720;7.296;2023-02-15T09:04:30;11.30;;;6.67;;
4397;SDS011;2213;49.720;7.296;2023-02-15T09:07:01;17.73;;;7.40;;
4397;SDS011;2213;49.720;7.296;2023-02-15T09:09:31;17.67;;;7.80;;
4397;SDS011;2213;49.720;7.296;2023-02-15T09:12:00;18.90;;;9.17;;
4397;SDS011;2213;49.720;7.296;2023-02-15T09:14:31;14.30;;;7.30;;
4397;SDS011;2213;49.720;7.296;2023-02-15T09:17:03;13.63;;;6.97;;
4397;SDS011;2213;49.720;7.296;2023-02-15T09:19:33;11.17;;;6.80;;
4397;SDS011;2213;49.720;7.296;2023-02-15T09:22:03;13.47;;;7.30;;
4397;SDS011;2213;49.720;7.296;2023-02-15T09:24:34;12.53;;;7.00;;
4397;SDS011;2213;49.720;7.296;2023-02-15T09:27:03;11.63;;;7.13;;
4397;SDS011;2213;49.720;7.296;2023-02-15T09:29:37;14.50;;;7.27;;
4397;SDS011;2213;49.720;7.296;2023-02-15T09:32:08;16.17;;;7.77;;
4397;SDS011;2213;49.720;7.296;2023-02-15T09:34:42;13.03;;;6.23;;
4397;SDS011;2213;49.720;7.296;2023-02-15T09:37:12;15.40;;;8.23;;
4397;SDS011;2213;49.720;7.296;2023-02-15T09:39:43;11.63;;;6.70;;
4397;SDS011;2213;49.720;7.296;2023-02-15T09:45:27;11.20;;;6.60;;
4397;SDS011;2213;49.720;7.296;2023-02-15T09:48:32;17.20;;;7.57;;
4397;SDS011;2213;49.720;7.296;2023-02-15T09:51:18;10.57;;;6.27;;
4397;SDS011;2213;49.720;7.296;2023-02-15T09:54:37;11.97;;;6.27;;
4397;SDS011;2213;49.720;7.296;2023-02-15T09:57:27;11.40;;;6.33;;
4397;SDS011;2213;49.720;7.296;2023-02-15T10:00:15;14.80;;;8.20;;
4397;SDS011;2213;49.720;7.296;2023-02-15T10:03:07;8.93;;;5.53;;
4397;SDS011;2213;49.720;7.296;2023-02-15T10:05:58;9.80;;;5.80;;
4397;SDS011;2213;49.720;7.296;2023-02-15T10:08:53;12.30;;;6.30;;
4397;SDS011;2213;49.720;7.296;2023-02-15T10:11:55;8.90;;;5.50;;
4397;SDS011;2213;49.720;7.296;2023-02-15T10:14:45;12.37;;;6.10;;
4397;SDS011;2213;49.720;7.296;2023-02-15T10:17:57;10.07;;;6.37;;
4397;SDS011;2213;49.720;7.296;2023-02-15T10:20:55;13.53;;;7.00;;
4397;SDS011;2213;49.720;7.296;2023-02-15T10:23:38;13.73;;;6.17;;
4397;SDS011;2213;49.720;7.296;2023-02-15T10:26:27;10.70;;;6.80;;
4397;SDS011;2213;49.720;7.296;2023-02-15T10:29:07;11.37;;;5.60;;
4397;SDS011;2213;49.720;7.296;2023-02-15T10:31:48;10.13;;;6.63;;
4397;SDS011;2213;49.720;7.296;2023-02-15T10:34:26;10.30;;;6.60;;
4397;SDS011;2213;49.720;7.296;2023-02-15T10:37:17;10.27;;;5.63;;
4397;SDS011;2213;49.720;7.296;2023-02-15T10:40:07;9.90;;;5.93;;
4397;SDS011;2213;49.720;7.296;2023-02-15T10:42:54;8.63;;;5.30;;
4397;SDS011;2213;49.720;7.296;2023-02-15T10:45:46;8.93;;;5.80;;
4397;SDS011;2213;49.720;7.296;2023-02-15T10:51:42;10.90;;;5.80;;
4397;SDS011;2213;49.720;7.296;2023-02-15T10:54:32;9.50;;;5.60;;
4397;SDS011;2213;49.720;7.296;2023-02-15T10:57:16;12.50;;;5.70;;
4397;SDS011;2213;49.720;7.296;2023-02-15T11:00:03;11.00;;;6.60;;
4397;SDS011;2213;49.720;7.296;2023-02-15T11:02:52;10.30;;;6.57;;
4397;SDS011;2213;49.720;7.296;2023-02-15T11:05:41;10.90;;;5.57;;
4397;SDS011;2213;49.720;7.296;2023-02-15T11:08:29;7.77;;;5.37;;
4397;SDS011;2213;49.720;7.296;2023-02-15T11:11:10;12.80;;;6.87;;
4397;SDS011;2213;49.720;7.296;2023-02-15T11:13:49;10.80;;;6.00;;
4397;SDS011;2213;49.720;7.296;2023-02-15T11:16:25;10.17;;;6.10;;
4397;SDS011;2213;49.720;7.296;2023-02-15T11:19:03;11.73;;;6.83;;
4397;SDS011;2213;49.720;7.296;2023-02-15T11:21:40;9.40;;;5.90;;
4397;SDS011;2213;49.720;7.296;2023-02-15T11:24:14;10.23;;;7.10;;
4397;SDS011;2213;49.720;7.296;2023-02-15T11:26:49;10.37;;;6.50;;
4397;SDS011;2213;49.720;7.296;2023-02-15T11:29:25;12.50;;;7.33;;
4397;SDS011;2213;49.720;7.296;2023-02-15T11:32:01;12.93;;;7.07;;
4397;SDS011;2213;49.720;7.296;2023-02-15T11:34:48;12.90;;;7.40;;
4397;SDS011;2213;49.720;7.296;2023-02-15T11:37:23;10.23;;;6.23;;
4397;SDS011;2213;49.720;7.296;2023-02-15T11:40:20;9.87;;;6.10;;
4397;SDS011;2213;49.720;7.296;2023-02-15T11:42:53;13.50;;;7.07;;
4397;SDS011;2213;49.720;7.296;2023-02-15T11:45:27;7.80;;;5.53;;
4397;SDS011;2213;49.720;7.296;2023-02-15T11:47:58;17.63;;;6.47;;
4397;SDS011;2213;49.720;7.296;2023-02-15T11:50:37;11.60;;;6.60;;
4397;SDS011;2213;49.720;7.296;2023-02-15T11:53:09;8.80;;;6.50;;
4397;SDS011;2213;49.720;7.296;2023-02-15T11:55:44;9.93;;;7.30;;
4397;SDS011;2213;49.720;7.296;2023-02-15T11:58:22;11.70;;;6.73;;
4397;SDS011;2213;49.720;7.296;2023-02-15T12:01:00;9.87;;;5.23;;
4397;SDS011;2213;49.720;7.296;2023-02-15T12:03:43;13.70;;;7.30;;
4397;SDS011;2213;49.720;7.296;2023-02-15T12:06:17;11.47;;;7.23;;
4397;SDS011;2213;49.720;7.296;2023-02-15T12:08:59;9.70;;;6.17;;
4397;SDS011;2213;49.720;7.296;2023-02-15T12:11:40;10.53;;;6.40;;
4397;SDS011;2213;49.720;7.296;2023-02-15T12:14:10;13.67;;;6.20;;
4397;SDS011;2213;49.720;7.296;2023-02-15T12:16:43;12.23;;;7.47;;
4397;SDS011;2213;49.720;7.296;2023-02-15T12:19:23;11.20;;;6.87;;
4397;SDS011;2213;49.720;7.296;2023-02-15T12:21:59;13.10;;;7.10;;
4397;SDS011;2213;49.720;7.296;2023-02-15T12:24:33;12.23;;;7.37;;
4397;SDS011;2213;49.720;7.296;2023-02-15T12:27:15;10.67;;;6.80;;
4397;SDS011;2213;49.720;7.296;2023-02-15T12:29:48;10.47;;;6.70;;
4397;SDS011;2213;49.720;7.296;2023-02-15T12:32:22;11.47;;;7.00;;
4397;SDS011;2213;49.720;7.296;2023-02-15T12:34:55;10.27;;;6.70;;
4397;SDS011;2213;49.720;7.296;2023-02-15T12:37:35;11.17;;;6.67;;
4397;SDS011;2213;49.720;7.296;2023-02-15T12:40:18;11.93;;;7.70;;
4397;SDS011;2213;49.720;7.296;2023-02-15T12:42:52;12.43;;;7.47;;
4397;SDS011;2213;49.720;7.296;2023-02-15T12:45:23;12.43;;;6.47;;
4397;SDS011;2213;49.720;7.296;2023-02-15T12:48:08;10.90;;;7.33;;
4397;SDS011;2213;49.720;7.296;2023-02-15T12:50:44;12.80;;;6.60;;
4397;SDS011;2213;49.720;7.296;2023-02-15T12:53:30;12.77;;;7.13;;
4397;SDS011;2213;49.720;7.296;2023-02-15T12:56:02;13.00;;;7.00;;
4397;SDS011;2213;49.720;7.296;2023-02-15T12:58:36;11.30;;;6.23;;
4397;SDS011;2213;49.720;7.296;2023-02-15T13:01:11;12.00;;;7.60;;
4397;SDS011;2213;49.720;7.296;2023-02-15T13:03:55;10.77;;;7.00;;
4397;SDS011;2213;49.720;7.296;2023-02-15T13:06:32;13.67;;;8.17;;
4397;SDS011;2213;49.720;7.296;2023-02-15T13:09:06;12.37;;;6.93;;
4397;SDS011;2213;49.720;7.296;2023-02-15T13:11:43;9.10;;;6.83;;
4397;SDS011;2213;49.720;7.296;2023-02-15T13:14:18;16.77;;;8.30;;
4397;SDS011;2213;49.720;7.296;2023-02-15T13:16:50;16.27;;;9.00;;
4397;SDS011;2213;49.720;7.296;2023-02-15T13:19:29;21.43;;;10.37;;
4397;SDS011;2213;49.720;7.296;2023-02-15T13:22:05;16.93;;;10.20;;
4397;SDS011;2213;49.720;7.296;2023-02-15T13:24:43;31.80;;;13.30;;
4397;SDS011;2213;49.720;7.296;2023-02-15T13:27:20;24.83;;;11.73;;
4397;SDS011;2213;49.720;7.296;2023-02-15T13:29:58;26.83;;;13.13;;
4397;SDS011;2213;49.720;7.296;2023-02-15T13:32:39;26.07;;;12.87;;
4397;SDS011;2213;49.720;7.296;2023-02-15T13:35:14;27.93;;;13.57;;
4397;SDS011;2213;49.720;7.296;2023-02-15T13:38:02;19.27;;;9.23;;
4397;SDS011;2213;49.720;7.296;2023-02-15T13:41:20;11.43;;;7.30;;
4397;SDS011;2213;49.720;7.296;2023-02-15T13:44:04;17.10;;;8.00;;
4397;SDS011;2213;49.720;7.296;2023-02-15T13:46:55;13.00;;;7.00;;
4397;SDS011;2213;49.720;7.296;2023-02-15T13:49:47;12.77;;;7.47;;
4397;SDS011;2213;49.720;7.296;2023-02-15T13:52:31;15.87;;;9.57;;
4397;SDS011;2213;49.720;7.296;2023-02-15T13:55:21;14.43;;;9.03;;
4397;SDS011;2213;49.720;7.296;2023-02-15T14:01:39;14.30;;;9.40;;
4397;SDS011;2213;49.720;7.296;2023-02-15T14:04:28;13.33;;;9.13;;
4397;SDS011;2213;49.720;7.296;2023-02-15T14:07:25;16.30;;;9.27;;
4397;SDS011;2213;49.720;7.296;2023-02-15T14:13:28;15.17;;;9.30;;
4397;SDS011;2213;49.720;7.296;2023-02-15T14:16:31;15.67;;;9.50;;
4397;SDS011;2213;49.720;7.296;2023-02-15T14:19:34;17.00;;;9.37;;
4397;SDS011;2213;49.720;7.296;2023-02-15T14:22:15;16.30;;;9.43;;
4397;SDS011;2213;49.720;7.296;2023-02-15T14:25:00;14.40;;;9.30;;
4397;SDS011;2213;49.720;7.296;2023-02-15T14:27:51;16.17;;;10.00;;
4397;SDS011;2213;49.720;7.296;2023-02-15T14:30:30;23.10;;;12.87;;
4397;SDS011;2213;49.720;7.296;2023-02-15T14:33:05;12.50;;;8.80;;
4397;SDS011;2213;49.720;7.296;2023-02-15T14:35:55;24.03;;;10.10;;
4397;SDS011;2213;49.720;7.296;2023-02-15T14:38:30;21.73;;;10.40;;
4397;SDS011;2213;49.720;7.296;2023-02-15T14:41:19;17.00;;;9.83;;
4397;SDS011;2213;49.720;7.296;2023-02-15T14:43:58;16.10;;;10.07;;
4397;SDS011;2213;49.720;7.296;2023-02-15T14:46:37;17.03;;;9.20;;
4397;SDS011;2213;49.720;7.296;2023-02-15T14:49:15;14.53;;;9.07;;
4397;SDS011;2213;49.720;7.296;2023-02-15T14:51:58;14.40;;;9.87;;
4397;SDS011;2213;49.720;7.296;2023-02-15T14:57:31;14.90;;;9.60;;
4397;SDS011;2213;49.720;7.296;2023-02-15T15:00:14;17.60;;;10.03;;
4397;SDS011;2213;49.720;7.296;2023-02-15T15:03:10;12.70;;;9.00;;
4397;SDS011;2213;49.720;7.296;2023-02-15T15:05:50;16.50;;;10.13;;
4397;SDS011;2213;49.720;7.296;2023-02-15T15:08:25;15.40;;;9.90;;
4397;SDS011;2213;49.720;7.296;2023-02-15T15:14:43;17.60;;;10.37;;
4397;SDS011;2213;49.720;7.296;2023-02-15T15:17:13;14.80;;;9.70;;
4397;SDS011;2213;49.720;7.296;2023-02-15T15:20:37;22.17;;;11.00;;
4397;SDS011;2213;49.720;7.296;2023-02-15T15:26:25;19.93;;;10.97;;
4397;SDS011;2213;49.720;7.296;2023-02-15T15:29:17;17.47;;;11.03;;
4397;SDS011;2213;49.720;7.296;2023-02-15T15:32:09;15.17;;;10.07;;
4397;SDS011;2213;49.720;7.296;2023-02-15T15:34:51;30.70;;;13.60;;
4397;SDS011;2213;49.720;7.296;2023-02-15T15:37:57;16.13;;;10.40;;
4397;SDS011;2213;49.720;7.296;2023-02-15T15:41:17;16.90;;;11.00;;
4397;SDS011;2213;49.720;7.296;2023-02-15T15:43:59;22.13;;;11.80;;
4397;SDS011;2213;49.720;7.296;2023-02-15T15:47:05;23.17;;;11.80;;
4397;SDS011;2213;49.720;7.296;2023-02-15T15:49:49;20.30;;;11.90;;
4397;SDS011;2213;49.720;7.296;2023-02-15T15:52:24;19.90;;;11.60;;
4397;SDS011;2213;49.720;7.296;2023-02-15T15:55:02;18.40;;;10.90;;
4397;SDS011;2213;49.720;7.296;2023-02-15T15:57:43;18.80;;;11.63;;
4397;SDS011;2213;49.720;7.296;2023-02-15T16:03:14;17.63;;;11.23;;
4397;SDS011;2213;49.720;7.296;2023-02-15T16:05:48;24.83;;;11.73;;
4397;SDS011;2213;49.720;7.296;2023-02-15T16:08:28;18.30;;;12.53;;
4397;SDS011;2213;49.720;7.296;2023-02-15T16:11:02;18.03;;;11.43;;
4397;SDS011;2213;49.720;7.296;2023-02-15T16:13:43;19.00;;;10.10;;
4397;SDS011;2213;49.720;7.296;2023-02-15T16:16:13;19.10;;;10.73;;
4397;SDS011;2213;49.720;7.296;2023-02-15T16:18:49;18.57;;;9.77;;
4397;SDS011;2213;49.720;7.296;2023-02-15T16:21:21;16.67;;;10.53;;
4397;SDS011;2213;49.720;7.296;2023-02-15T16:24:01;15.30;;;9.63;;
4397;SDS011;2213;49.720;7.296;2023-02-15T16:27:06;16.70;;;10.50;;
4397;SDS011;2213;49.720;7.296;2023-02-15T16:29:55;16.70;;;10.07;;
4397;SDS011;2213;49.720;7.296;2023-02-15T16:32:26;19.93;;;9.73;;
4397;SDS011;2213;49.720;7.296;2023-02-15T16:34:57;18.87;;;10.77;;